Chicago Lansing, IL

4:53 AM CDT on October 17, 2017 (GMT -0500)
Lansing Municipal

Weather History for KIGQ - May, 2013

Change the Weather History Date:

Thursday, May 9, 2013

  Actual Average (KGYY) Record (KGYY)
Temperature  
Mean Temperature 62 °F -  
Max Temperature 75 °F 60 °F 91 °F (1963)
Min Temperature 50 °F 43 °F 34 °F (1960)
Degree Days  
Heating Degree Days 2    
Growing Degree Days 12 (Base 50)    
Moisture  
Dew Point 54 °F    
Average Humidity 76    
Maximum Humidity 100    
Minimum Humidity 47    
Precipitation  
Precipitation 0.59 in - - ()
Sea Level Pressure  
Sea Level Pressure 29.92 in    
Wind  
Wind Speed 4 mph (South)    
Max Wind Speed 17 mph    
Max Gust Speed 28 mph    
Visibility 9 miles    
Events Rain    
Averages and records for this station are not official NWS values.
T = Trace of Precipitation, MM = Missing Value Source: NWS Daily Summary

Daily Weather History Graph

Daily Weather History Graph

Search for Another Location

Airport or City:

Trip Planner

Search our weather history database for the weather conditions in past years. The results will help you decide how hot, cold, wet, or windy it might be!

Date:

Astronomy

May. 09, 2013 Rise Set
Actual Time 5:36 AM CDT 7:56 PM CDT
Civil Twilight 5:05 AM CDT 8:27 PM CDT
Nautical Twilight 4:27 AM CDT 9:06 PM CDT
Astronomical Twilight 3:45 AM CDT 9:49 PM CDT
Moon 5:21 AM CDT (5/9) 7:51 PM CDT (5/9)
Length of Visible Light 15h 21m
Length of Day
14h 19m
Waning Crescent, 0% of the Moon is Illuminated
May 9
Waning Crescent
May 9
New
May 17
First Quarter
May 24
Full
May 31
Last Quarter

Hourly Weather History & Observations

Time (CDT) Temp. Dew Point Humidity Pressure Visibility Wind Dir Wind Speed Gust Speed Precip Events Conditions
12:15 AM 53.8 °F 46.6 °F 77% 29.98 in 10.0 mi Calm Calm - N/A   Clear
12:55 AM 53.8 °F 46.2 °F 76% 29.97 in 10.0 mi Calm Calm - N/A   Clear
1:35 AM 51.3 °F 45.5 °F 81% 29.96 in 10.0 mi Calm Calm - N/A   Clear
1:55 AM 52.7 °F 46.9 °F 81% 29.96 in 10.0 mi Calm Calm - N/A   Clear
2:15 AM 54.7 °F 47.1 °F 76% 29.96 in 10.0 mi Calm Calm - N/A   Clear
2:35 AM 52.9 °F 46.0 °F 78% 29.96 in 10.0 mi Calm Calm - N/A   Clear
3:15 AM 50.0 °F 47.1 °F 90% 29.96 in 10.0 mi Calm Calm - N/A   Clear
3:55 AM 50.4 °F 47.3 °F 89% 29.96 in 10.0 mi Calm Calm - N/A   Clear
4:15 AM 50.0 °F 48.2 °F 94% 29.96 in 10.0 mi Calm Calm - N/A   Clear
4:55 AM 51.1 °F 47.8 °F 89% 29.95 in 10.0 mi Calm Calm - N/A   Clear
5:55 AM 50.7 °F 47.7 °F 89% 29.95 in 10.0 mi Calm Calm - N/A   Clear
6:35 AM 53.6 °F 48.7 °F 84% 29.96 in 10.0 mi Calm Calm - N/A   Clear
6:55 AM 55.0 °F 49.8 °F 83% 29.96 in 10.0 mi Calm Calm - N/A   Clear
7:15 AM 57.7 °F 54.0 °F 87% 29.96 in 10.0 mi Calm Calm - N/A   Clear
8:35 AM 66.6 °F 53.8 °F 63% 29.96 in 10.0 mi Calm Calm - N/A   Clear
9:15 AM 70.3 °F 53.4 °F 55% 29.96 in 10.0 mi South 4.6 mph - N/A   Clear
9:55 AM 71.6 °F 54.3 °F 54% 29.96 in 10.0 mi South 4.6 mph - N/A   Overcast
10:15 AM 71.2 °F 53.2 °F 53% 29.97 in 10.0 mi SSW 5.8 mph - N/A   Overcast
10:35 AM 69.8 °F 53.4 °F 56% 29.97 in 10.0 mi SSW 6.9 mph - N/A   Overcast
10:55 AM 70.2 °F 53.6 °F 56% 29.98 in 10.0 mi WSW 8.1 mph - N/A   Overcast
11:15 AM 70.3 °F 52.2 °F 52% 29.97 in 10.0 mi WSW 9.2 mph - N/A   Mostly Cloudy
11:35 AM 71.1 °F 51.8 °F 50% 29.97 in 10.0 mi WSW 10.4 mph - N/A   Scattered Clouds
11:55 AM 71.6 °F 51.8 °F 50% 29.96 in 10.0 mi SW 4.6 mph - N/A   Clear
12:15 PM 72.9 °F 52.9 °F 49% 29.96 in 10.0 mi SW 6.9 mph - N/A   Clear
12:35 PM 73.6 °F 52.7 °F 48% 29.95 in 10.0 mi SW 9.2 mph - N/A   Clear
12:55 PM 75.0 °F 54.0 °F 48% 29.94 in 10.0 mi South 9.2 mph - N/A   Clear
1:15 PM 73.8 °F 54.1 °F 50% 29.94 in 10.0 mi SSW 6.9 mph - N/A   Clear
1:35 PM 74.7 °F 53.6 °F 48% 29.93 in 10.0 mi South 5.8 mph - N/A   Clear
1:55 PM 74.7 °F 53.1 °F 47% 29.94 in 10.0 mi SSW 12.7 mph - N/A   Scattered Clouds
2:35 PM 72.5 °F 53.2 °F 51% 29.94 in 10.0 mi SSW 15.0 mph - N/A   Overcast
3:15 PM 69.8 °F 54.7 °F 59% 29.93 in 10.0 mi SSW 11.5 mph - N/A Rain Light Rain
3:35 PM 70.2 °F 54.9 °F 58% 29.93 in 10.0 mi SSW 15.0 mph 20.7 mph N/A   Overcast
3:55 PM 69.6 °F 54.3 °F 58% 29.93 in 10.0 mi SSW 17.3 mph 23.0 mph N/A   Overcast
4:15 PM 67.6 °F 56.8 °F 68% 29.93 in 10.0 mi SSW 16.1 mph 27.6 mph N/A   Overcast
4:35 PM 65.1 °F 58.8 °F 80% 29.93 in 10.0 mi South 13.8 mph - N/A Rain Light Rain
4:55 PM 63.7 °F 59.9 °F 87% 29.92 in 10.0 mi SSE 9.2 mph - N/A Rain Light Rain
5:15 PM 63.7 °F 59.9 °F 87% 29.92 in 10.0 mi SSE 8.1 mph - N/A Rain Light Rain
5:35 PM 63.3 °F 59.4 °F 87% 29.91 in 10.0 mi SSE 8.1 mph - N/A Rain Light Rain
5:55 PM 62.8 °F 59.2 °F 88% 29.90 in 10.0 mi SE 8.1 mph - N/A Rain Light Rain
6:15 PM 62.6 °F 59.4 °F 89% 29.88 in 10.0 mi ESE 6.9 mph - 0.01 in Rain Light Rain
6:35 PM 62.6 °F 59.2 °F 89% 29.87 in 10.0 mi Calm Calm - 0.01 in Rain Light Rain
6:55 PM 62.6 °F 59.4 °F 89% 29.86 in 10.0 mi ESE 8.1 mph - 0.01 in Rain Light Rain
7:15 PM 62.2 °F 59.5 °F 91% 29.86 in 10.0 mi ESE 5.8 mph - N/A Rain Rain
7:35 PM 62.1 °F 59.5 °F 91% 29.86 in 10.0 mi ESE 6.9 mph - N/A   Overcast
7:55 PM 61.9 °F 59.4 °F 91% 29.86 in 10.0 mi SE 5.8 mph - N/A Rain Light Rain
8:15 PM 61.7 °F 59.2 °F 91% 29.86 in 10.0 mi SSE 6.9 mph - N/A Rain Light Rain
8:35 PM 61.7 °F 59.4 °F 92% 29.88 in 10.0 mi South 5.8 mph - 0.02 in Rain Rain
8:55 PM 61.2 °F 59.4 °F 94% 29.88 in 5.0 mi SSE 6.9 mph - 0.08 in Rain Heavy Rain
9:15 PM 60.8 °F 59.2 °F 94% 29.88 in 5.0 mi SSE 9.2 mph - 0.09 in Rain Heavy Rain
9:35 PM 60.8 °F 58.5 °F 92% 29.87 in 7.0 mi ESE 5.8 mph - 0.14 in Rain Rain
9:55 PM 60.3 °F 58.3 °F 93% 29.87 in 7.0 mi SE 5.8 mph - 0.18 in Rain Heavy Rain
10:15 PM 59.9 °F 58.1 °F 94% 29.86 in 5.0 mi ESE 6.9 mph - 0.07 in Rain Heavy Rain
10:35 PM 60.8 °F 59.0 °F 94% 29.84 in 5.0 mi East 8.1 mph - N/A Rain Heavy Rain
10:55 PM 59.7 °F 58.1 °F 94% 29.84 in 5.0 mi East 8.1 mph - 0.30 in Rain Rain
11:15 PM 59.0 °F 59.0 °F 100% 29.83 in 7.0 mi SE 3.5 mph - N/A Rain Heavy Rain
11:35 PM 59.9 °F 58.3 °F 94% 29.83 in 7.0 mi West 5.8 mph - 0.02 in Rain Light Rain
11:55 PM 60.8 °F 59.0 °F 94% 29.83 in 7.0 mi SSE 5.8 mph - N/A Rain Rain